Terminal Aerodrome Forecast
Issued by NWS Mt. Holly, NJ

Home | Current Version | Previous Version | Text Only | Print | Product List | Glossary On
Versions: 1 2 3 4 5 6 7 8 9 10 11 12 13 14
000
FTUS41 KPHI 022343
TAFRDG
TAF
KRDG 022343Z 0300/0324 VRB02KT P6SM SKC
     FM030800 00000KT 3SM BR SKC
     FM031300 32004KT P6SM SCT030=

USA.gov is the U.S. government's official web portal to all federal, state and local government web resources and services.